Miner, Montana
Current Conditions -  °F | °C
As of 11:23 PM on Tuesday 25 Nov 2014 (Local Time) from KLVM Reporting Station
Light Snow Light Snow  
Wind Chill: 20°   Ceiling: 600
Heat Index: 27°   Visibility: 1mi
Dew Point: 25°   Wind: 6mph
Humidity: 92%   Direction: 80°E
Pressure: 30.13"   Gusts: NA
Location:  45.199°N, 110.818°W
Report Text: KLVM 260623Z AUTO 08005KT 1SM -SN BR OVC006 M03/M04 A3013 RMK AO2 P0002 T10281039
Loading
Personal Weather Stations






























Interactive Weather Map New forecast layout! Learn more

10-Day Weather Forecast

Advertisements
Track Severe Weather on mobile